sensor_id;sensor_type;location;lat;lon;timestamp;P1;durP1;ratioP1;P2;durP2;ratioP2
18931;SDS011;9598;50.954;3.112;2023-04-03T00:02:47;11.18;;;10.07;;
18931;SDS011;9598;50.954;3.112;2023-04-03T00:07:54;13.98;;;10.80;;
18931;SDS011;9598;50.954;3.112;2023-04-03T00:12:56;11.38;;;10.27;;
18931;SDS011;9598;50.954;3.112;2023-04-03T00:17:58;13.13;;;11.00;;
18931;SDS011;9598;50.954;3.112;2023-04-03T00:23:02;12.65;;;10.70;;
18931;SDS011;9598;50.954;3.112;2023-04-03T00:28:04;10.93;;;9.85;;
18931;SDS011;9598;50.954;3.112;2023-04-03T00:33:06;10.52;;;9.52;;
18931;SDS011;9598;50.954;3.112;2023-04-03T00:38:10;9.90;;;9.00;;
18931;SDS011;9598;50.954;3.112;2023-04-03T00:43:13;12.07;;;10.30;;
18931;SDS011;9598;50.954;3.112;2023-04-03T00:48:18;11.02;;;9.25;;
18931;SDS011;9598;50.954;3.112;2023-04-03T00:53:25;11.02;;;9.95;;
18931;SDS011;9598;50.954;3.112;2023-04-03T00:58:33;10.88;;;9.45;;
18931;SDS011;9598;50.954;3.112;2023-04-03T01:03:44;13.13;;;10.63;;
18931;SDS011;9598;50.954;3.112;2023-04-03T01:08:48;10.52;;;9.43;;
18931;SDS011;9598;50.954;3.112;2023-04-03T01:13:52;10.48;;;9.40;;
18931;SDS011;9598;50.954;3.112;2023-04-03T01:18:54;11.23;;;10.10;;
18931;SDS011;9598;50.954;3.112;2023-04-03T01:24:03;10.07;;;9.07;;
18931;SDS011;9598;50.954;3.112;2023-04-03T01:29:17;9.93;;;9.02;;
18931;SDS011;9598;50.954;3.112;2023-04-03T01:34:21;10.88;;;9.35;;
18931;SDS011;9598;50.954;3.112;2023-04-03T01:39:24;13.05;;;9.77;;
18931;SDS011;9598;50.954;3.112;2023-04-03T01:44:27;10.93;;;9.80;;
18931;SDS011;9598;50.954;3.112;2023-04-03T01:49:30;9.95;;;8.95;;
18931;SDS011;9598;50.954;3.112;2023-04-03T01:54:33;11.23;;;9.52;;
18931;SDS011;9598;50.954;3.112;2023-04-03T01:59:35;10.15;;;9.07;;
18931;SDS011;9598;50.954;3.112;2023-04-03T02:04:39;10.43;;;9.43;;
18931;SDS011;9598;50.954;3.112;2023-04-03T02:09:41;13.45;;;9.27;;
18931;SDS011;9598;50.954;3.112;2023-04-03T02:14:43;11.18;;;9.48;;
18931;SDS011;9598;50.954;3.112;2023-04-03T02:19:47;10.02;;;9.13;;
18931;SDS011;9598;50.954;3.112;2023-04-03T02:24:49;10.27;;;9.38;;
18931;SDS011;9598;50.954;3.112;2023-04-03T02:29:52;10.30;;;9.18;;
18931;SDS011;9598;50.954;3.112;2023-04-03T02:34:55;10.20;;;9.15;;
18931;SDS011;9598;50.954;3.112;2023-04-03T02:39:57;10.60;;;9.55;;
18931;SDS011;9598;50.954;3.112;2023-04-03T02:45:01;11.23;;;9.73;;
18931;SDS011;9598;50.954;3.112;2023-04-03T02:50:06;11.52;;;9.68;;
18931;SDS011;9598;50.954;3.112;2023-04-03T02:55:08;12.32;;;9.18;;
18931;SDS011;9598;50.954;3.112;2023-04-03T03:00:15;12.13;;;9.38;;
18931;SDS011;9598;50.954;3.112;2023-04-03T03:05:19;12.50;;;9.52;;
18931;SDS011;9598;50.954;3.112;2023-04-03T03:10:21;10.23;;;9.23;;
18931;SDS011;9598;50.954;3.112;2023-04-03T03:15:23;10.60;;;9.60;;
18931;SDS011;9598;50.954;3.112;2023-04-03T03:20:27;11.85;;;9.35;;
18931;SDS011;9598;50.954;3.112;2023-04-03T03:25:29;10.38;;;9.25;;
18931;SDS011;9598;50.954;3.112;2023-04-03T03:30:31;10.48;;;9.45;;
18931;SDS011;9598;50.954;3.112;2023-04-03T03:35:35;10.90;;;9.32;;
18931;SDS011;9598;50.954;3.112;2023-04-03T03:40:37;11.52;;;10.43;;
18931;SDS011;9598;50.954;3.112;2023-04-03T03:45:40;12.45;;;11.15;;
18931;SDS011;9598;50.954;3.112;2023-04-03T03:50:44;15.38;;;13.63;;
18931;SDS011;9598;50.954;3.112;2023-04-03T03:55:47;18.10;;;14.85;;
18931;SDS011;9598;50.954;3.112;2023-04-03T04:00:50;19.85;;;17.13;;
18931;SDS011;9598;50.954;3.112;2023-04-03T04:05:54;15.25;;;12.75;;
18931;SDS011;9598;50.954;3.112;2023-04-03T04:10:56;12.48;;;11.15;;
18931;SDS011;9598;50.954;3.112;2023-04-03T04:15:58;10.52;;;9.52;;
18931;SDS011;9598;50.954;3.112;2023-04-03T04:21:02;13.77;;;10.68;;
18931;SDS011;9598;50.954;3.112;2023-04-03T04:26:05;11.95;;;10.73;;
18931;SDS011;9598;50.954;3.112;2023-04-03T04:31:10;12.15;;;10.82;;
18931;SDS011;9598;50.954;3.112;2023-04-03T04:36:14;12.02;;;10.82;;
18931;SDS011;9598;50.954;3.112;2023-04-03T04:41:18;11.93;;;10.68;;
18931;SDS011;9598;50.954;3.112;2023-04-03T04:46:22;12.10;;;10.38;;
18931;SDS011;9598;50.954;3.112;2023-04-03T04:51:31;11.70;;;10.38;;
18931;SDS011;9598;50.954;3.112;2023-04-03T04:56:33;12.70;;;11.32;;
18931;SDS011;9598;50.954;3.112;2023-04-03T05:01:36;12.45;;;11.23;;
18931;SDS011;9598;50.954;3.112;2023-04-03T05:06:46;16.05;;;13.35;;
18931;SDS011;9598;50.954;3.112;2023-04-03T05:11:53;15.48;;;12.27;;
18931;SDS011;9598;50.954;3.112;2023-04-03T05:16:59;15.82;;;12.70;;
18931;SDS011;9598;50.954;3.112;2023-04-03T05:22:05;13.25;;;10.98;;
18931;SDS011;9598;50.954;3.112;2023-04-03T05:27:10;12.65;;;10.45;;
18931;SDS011;9598;50.954;3.112;2023-04-03T05:32:16;11.55;;;10.02;;
18931;SDS011;9598;50.954;3.112;2023-04-03T05:37:24;11.57;;;9.63;;
18931;SDS011;9598;50.954;3.112;2023-04-03T05:42:30;12.32;;;9.55;;
18931;SDS011;9598;50.954;3.112;2023-04-03T05:47:32;12.45;;;9.40;;
18931;SDS011;9598;50.954;3.112;2023-04-03T05:52:40;10.57;;;9.52;;
18931;SDS011;9598;50.954;3.112;2023-04-03T05:57:47;9.95;;;8.18;;
18931;SDS011;9598;50.954;3.112;2023-04-03T06:02:50;10.18;;;8.52;;
18931;SDS011;9598;50.954;3.112;2023-04-03T06:07:58;11.60;;;8.77;;
18931;SDS011;9598;50.954;3.112;2023-04-03T06:13:00;11.07;;;9.55;;
18931;SDS011;9598;50.954;3.112;2023-04-03T06:18:02;10.05;;;9.05;;
18931;SDS011;9598;50.954;3.112;2023-04-03T06:23:07;9.52;;;8.60;;
18931;SDS011;9598;50.954;3.112;2023-04-03T06:28:10;13.00;;;9.60;;
18931;SDS011;9598;50.954;3.112;2023-04-03T06:33:12;9.75;;;8.38;;
18931;SDS011;9598;50.954;3.112;2023-04-03T06:38:16;10.65;;;9.55;;
18931;SDS011;9598;50.954;3.112;2023-04-03T06:43:19;12.52;;;9.10;;
18931;SDS011;9598;50.954;3.112;2023-04-03T06:48:23;10.32;;;9.32;;
18931;SDS011;9598;50.954;3.112;2023-04-03T06:53:26;10.15;;;9.05;;
18931;SDS011;9598;50.954;3.112;2023-04-03T06:58:28;9.13;;;8.07;;
18931;SDS011;9598;50.954;3.112;2023-04-03T07:03:30;9.07;;;8.05;;
18931;SDS011;9598;50.954;3.112;2023-04-03T07:08:34;8.60;;;7.30;;
18931;SDS011;9598;50.954;3.112;2023-04-03T07:13:36;9.13;;;7.78;;
18931;SDS011;9598;50.954;3.112;2023-04-03T07:18:38;9.48;;;7.82;;
18931;SDS011;9598;50.954;3.112;2023-04-03T07:23:43;8.05;;;6.95;;
18931;SDS011;9598;50.954;3.112;2023-04-03T07:28:45;6.63;;;6.05;;
18931;SDS011;9598;50.954;3.112;2023-04-03T07:33:48;8.40;;;6.75;;
18931;SDS011;9598;50.954;3.112;2023-04-03T07:38:52;6.25;;;5.68;;
18931;SDS011;9598;50.954;3.112;2023-04-03T07:43:54;8.48;;;6.03;;
18931;SDS011;9598;50.954;3.112;2023-04-03T07:48:56;7.88;;;5.57;;
18931;SDS011;9598;50.954;3.112;2023-04-03T07:54:01;6.35;;;5.53;;
18931;SDS011;9598;50.954;3.112;2023-04-03T07:59:04;6.53;;;5.70;;
18931;SDS011;9598;50.954;3.112;2023-04-03T08:04:06;5.70;;;5.20;;
18931;SDS011;9598;50.954;3.112;2023-04-03T08:09:10;5.97;;;5.03;;
18931;SDS011;9598;50.954;3.112;2023-04-03T08:14:12;8.45;;;6.07;;
18931;SDS011;9598;50.954;3.112;2023-04-03T08:19:18;6.25;;;4.65;;
18931;SDS011;9598;50.954;3.112;2023-04-03T08:24:22;5.45;;;3.90;;
18931;SDS011;9598;50.954;3.112;2023-04-03T08:29:24;5.03;;;4.28;;
18931;SDS011;9598;50.954;3.112;2023-04-03T08:34:30;4.32;;;3.47;;
18931;SDS011;9598;50.954;3.112;2023-04-03T08:39:36;5.07;;;4.57;;
18931;SDS011;9598;50.954;3.112;2023-04-03T08:44:43;7.60;;;5.25;;
18931;SDS011;9598;50.954;3.112;2023-04-03T08:49:57;7.10;;;5.78;;
18931;SDS011;9598;50.954;3.112;2023-04-03T08:55:03;8.27;;;6.25;;
18931;SDS011;9598;50.954;3.112;2023-04-03T09:00:16;8.75;;;6.15;;
18931;SDS011;9598;50.954;3.112;2023-04-03T09:05:24;8.95;;;7.68;;
18931;SDS011;9598;50.954;3.112;2023-04-03T09:10:37;8.77;;;7.47;;
18931;SDS011;9598;50.954;3.112;2023-04-03T09:15:41;10.75;;;8.20;;
18931;SDS011;9598;50.954;3.112;2023-04-03T09:20:46;8.60;;;7.75;;
18931;SDS011;9598;50.954;3.112;2023-04-03T09:25:59;16.30;;;8.05;;
18931;SDS011;9598;50.954;3.112;2023-04-03T09:31:06;7.80;;;7.07;;
18931;SDS011;9598;50.954;3.112;2023-04-03T09:36:38;7.78;;;6.72;;
18931;SDS011;9598;50.954;3.112;2023-04-03T09:41:43;10.48;;;7.68;;
18931;SDS011;9598;50.954;3.112;2023-04-03T09:46:57;10.23;;;7.15;;
18931;SDS011;9598;50.954;3.112;2023-04-03T09:52:05;7.18;;;6.47;;
18931;SDS011;9598;50.954;3.112;2023-04-03T09:57:21;7.15;;;5.38;;
18931;SDS011;9598;50.954;3.112;2023-04-03T10:02:34;6.53;;;5.75;;
18931;SDS011;9598;50.954;3.112;2023-04-03T10:07:38;9.43;;;7.03;;
18931;SDS011;9598;50.954;3.112;2023-04-03T10:12:41;7.93;;;6.93;;
18931;SDS011;9598;50.954;3.112;2023-04-03T10:17:48;8.77;;;6.95;;
18931;SDS011;9598;50.954;3.112;2023-04-03T10:22:58;11.63;;;7.60;;
18931;SDS011;9598;50.954;3.112;2023-04-03T10:28:08;7.30;;;5.80;;
18931;SDS011;9598;50.954;3.112;2023-04-03T10:33:19;6.13;;;4.35;;
18931;SDS011;9598;50.954;3.112;2023-04-03T10:38:31;7.05;;;4.70;;
18931;SDS011;9598;50.954;3.112;2023-04-03T10:43:42;7.88;;;5.97;;
18931;SDS011;9598;50.954;3.112;2023-04-03T10:48:51;6.13;;;5.45;;
18931;SDS011;9598;50.954;3.112;2023-04-03T10:54:08;8.43;;;5.15;;
18931;SDS011;9598;50.954;3.112;2023-04-03T10:59:25;8.07;;;5.18;;
18931;SDS011;9598;50.954;3.112;2023-04-03T11:04:31;5.13;;;3.47;;
18931;SDS011;9598;50.954;3.112;2023-04-03T11:09:39;5.55;;;4.13;;
18931;SDS011;9598;50.954;3.112;2023-04-03T11:14:45;6.53;;;4.20;;
18931;SDS011;9598;50.954;3.112;2023-04-03T11:19:52;4.78;;;3.97;;
18931;SDS011;9598;50.954;3.112;2023-04-03T11:25:04;5.15;;;3.55;;
18931;SDS011;9598;50.954;3.112;2023-04-03T11:30:19;3.67;;;3.00;;
18931;SDS011;9598;50.954;3.112;2023-04-03T11:35:25;3.15;;;2.85;;
18931;SDS011;9598;50.954;3.112;2023-04-03T11:40:28;6.15;;;3.40;;
18931;SDS011;9598;50.954;3.112;2023-04-03T11:45:36;6.50;;;4.13;;
18931;SDS011;9598;50.954;3.112;2023-04-03T11:50:41;4.68;;;3.20;;
18931;SDS011;9598;50.954;3.112;2023-04-03T11:55:52;4.13;;;3.45;;
18931;SDS011;9598;50.954;3.112;2023-04-03T12:01:06;5.22;;;3.97;;
18931;SDS011;9598;50.954;3.112;2023-04-03T12:11:44;2.67;;;2.47;;
18931;SDS011;9598;50.954;3.112;2023-04-03T12:16:48;2.75;;;2.50;;
18931;SDS011;9598;50.954;3.112;2023-04-03T12:22:05;5.32;;;3.00;;
18931;SDS011;9598;50.954;3.112;2023-04-03T12:32:40;2.47;;;2.28;;
18931;SDS011;9598;50.954;3.112;2023-04-03T12:43:34;2.15;;;1.95;;
18931;SDS011;9598;50.954;3.112;2023-04-03T12:48:48;4.55;;;2.05;;
18931;SDS011;9598;50.954;3.112;2023-04-03T12:53:56;4.57;;;2.35;;
18931;SDS011;9598;50.954;3.112;2023-04-03T12:59:15;3.13;;;2.00;;
18931;SDS011;9598;50.954;3.112;2023-04-03T13:04:19;3.17;;;2.15;;
18931;SDS011;9598;50.954;3.112;2023-04-03T13:09:23;3.42;;;1.98;;
18931;SDS011;9598;50.954;3.112;2023-04-03T13:14:28;2.17;;;1.98;;
18931;SDS011;9598;50.954;3.112;2023-04-03T13:19:32;2.83;;;1.83;;
18931;SDS011;9598;50.954;3.112;2023-04-03T13:24:35;2.53;;;2.30;;
18931;SDS011;9598;50.954;3.112;2023-04-03T13:29:40;5.38;;;2.75;;
18931;SDS011;9598;50.954;3.112;2023-04-03T13:34:43;4.55;;;2.78;;
18931;SDS011;9598;50.954;3.112;2023-04-03T13:39:46;4.07;;;2.78;;
18931;SDS011;9598;50.954;3.112;2023-04-03T13:45:08;4.25;;;3.05;;
18931;SDS011;9598;50.954;3.112;2023-04-03T13:50:22;6.13;;;3.00;;
18931;SDS011;9598;50.954;3.112;2023-04-03T13:55:27;4.78;;;2.63;;
18931;SDS011;9598;50.954;3.112;2023-04-03T14:00:36;3.78;;;2.30;;
18931;SDS011;9598;50.954;3.112;2023-04-03T14:05:41;4.60;;;2.28;;
18931;SDS011;9598;50.954;3.112;2023-04-03T14:10:45;3.63;;;2.50;;
18931;SDS011;9598;50.954;3.112;2023-04-03T14:15:50;2.95;;;2.00;;
18931;SDS011;9598;50.954;3.112;2023-04-03T14:20:53;5.43;;;2.28;;
18931;SDS011;9598;50.954;3.112;2023-04-03T14:25:55;3.85;;;2.60;;
18931;SDS011;9598;50.954;3.112;2023-04-03T14:30:58;5.00;;;2.45;;
18931;SDS011;9598;50.954;3.112;2023-04-03T14:36:04;4.00;;;2.53;;
18931;SDS011;9598;50.954;3.112;2023-04-03T14:41:13;6.00;;;3.28;;
18931;SDS011;9598;50.954;3.112;2023-04-03T14:46:17;3.85;;;2.47;;
18931;SDS011;9598;50.954;3.112;2023-04-03T14:51:23;5.15;;;3.00;;
18931;SDS011;9598;50.954;3.112;2023-04-03T14:56:27;3.72;;;2.42;;
18931;SDS011;9598;50.954;3.112;2023-04-03T15:01:30;3.20;;;2.03;;
18931;SDS011;9598;50.954;3.112;2023-04-03T15:06:34;20.00;;;15.50;;
18931;SDS011;9598;50.954;3.112;2023-04-03T15:11:36;5.60;;;3.08;;
18931;SDS011;9598;50.954;3.112;2023-04-03T15:16:38;4.50;;;3.80;;
18931;SDS011;9598;50.954;3.112;2023-04-03T15:21:42;14.55;;;8.52;;
18931;SDS011;9598;50.954;3.112;2023-04-03T15:26:44;2.92;;;2.40;;
18931;SDS011;9598;50.954;3.112;2023-04-03T15:31:46;2.47;;;1.85;;
18931;SDS011;9598;50.954;3.112;2023-04-03T15:36:51;2.45;;;1.80;;
18931;SDS011;9598;50.954;3.112;2023-04-03T15:41:53;2.25;;;1.90;;
18931;SDS011;9598;50.954;3.112;2023-04-03T15:46:59;3.22;;;2.63;;
18931;SDS011;9598;50.954;3.112;2023-04-03T15:52:04;2.25;;;2.05;;
18931;SDS011;9598;50.954;3.112;2023-04-03T15:57:06;3.75;;;2.80;;
18931;SDS011;9598;50.954;3.112;2023-04-03T16:02:08;3.08;;;2.70;;
18931;SDS011;9598;50.954;3.112;2023-04-03T16:07:15;7.32;;;3.65;;
18931;SDS011;9598;50.954;3.112;2023-04-03T16:12:17;3.90;;;2.80;;
18931;SDS011;9598;50.954;3.112;2023-04-03T16:17:19;2.83;;;2.13;;
18931;SDS011;9598;50.954;3.112;2023-04-03T16:22:23;4.05;;;2.22;;
18931;SDS011;9598;50.954;3.112;2023-04-03T16:27:26;6.75;;;3.90;;
18931;SDS011;9598;50.954;3.112;2023-04-03T16:32:31;5.75;;;2.72;;
18931;SDS011;9598;50.954;3.112;2023-04-03T16:37:34;3.50;;;3.20;;
18931;SDS011;9598;50.954;3.112;2023-04-03T16:42:37;2.50;;;2.30;;
18931;SDS011;9598;50.954;3.112;2023-04-03T16:47:39;3.45;;;2.10;;
18931;SDS011;9598;50.954;3.112;2023-04-03T16:52:42;3.72;;;2.55;;
18931;SDS011;9598;50.954;3.112;2023-04-03T16:57:46;3.28;;;2.50;;
18931;SDS011;9598;50.954;3.112;2023-04-03T17:02:49;3.65;;;2.60;;
18931;SDS011;9598;50.954;3.112;2023-04-03T17:07:52;3.35;;;2.58;;
18931;SDS011;9598;50.954;3.112;2023-04-03T17:12:54;3.33;;;2.92;;
18931;SDS011;9598;50.954;3.112;2023-04-03T17:17:56;3.72;;;2.40;;
18931;SDS011;9598;50.954;3.112;2023-04-03T17:23:00;4.13;;;2.55;;
18931;SDS011;9598;50.954;3.112;2023-04-03T17:28:02;3.35;;;2.80;;
18931;SDS011;9598;50.954;3.112;2023-04-03T17:33:04;2.92;;;2.20;;
18931;SDS011;9598;50.954;3.112;2023-04-03T17:38:07;2.92;;;2.55;;
18931;SDS011;9598;50.954;3.112;2023-04-03T17:43:10;5.88;;;2.78;;
18931;SDS011;9598;50.954;3.112;2023-04-03T17:48:12;4.68;;;2.45;;
18931;SDS011;9598;50.954;3.112;2023-04-03T17:53:15;2.88;;;2.03;;
18931;SDS011;9598;50.954;3.112;2023-04-03T17:58:18;6.13;;;3.33;;
18931;SDS011;9598;50.954;3.112;2023-04-03T18:03:20;4.80;;;3.58;;
18931;SDS011;9598;50.954;3.112;2023-04-03T18:08:23;4.90;;;3.05;;
18931;SDS011;9598;50.954;3.112;2023-04-03T18:13:25;5.10;;;3.05;;
18931;SDS011;9598;50.954;3.112;2023-04-03T18:18:27;6.03;;;3.88;;
18931;SDS011;9598;50.954;3.112;2023-04-03T18:23:31;6.22;;;3.40;;
18931;SDS011;9598;50.954;3.112;2023-04-03T18:28:36;2.67;;;2.33;;
18931;SDS011;9598;50.954;3.112;2023-04-03T18:33:40;4.15;;;3.30;;
18931;SDS011;9598;50.954;3.112;2023-04-03T18:38:43;4.65;;;2.83;;
18931;SDS011;9598;50.954;3.112;2023-04-03T18:43:45;11.27;;;8.45;;
18931;SDS011;9598;50.954;3.112;2023-04-03T18:48:47;10.43;;;5.72;;
18931;SDS011;9598;50.954;3.112;2023-04-03T18:53:51;7.75;;;4.20;;
18931;SDS011;9598;50.954;3.112;2023-04-03T18:58:53;3.88;;;2.85;;
18931;SDS011;9598;50.954;3.112;2023-04-03T19:03:55;3.08;;;2.75;;
18931;SDS011;9598;50.954;3.112;2023-04-03T19:08:59;4.40;;;3.00;;
18931;SDS011;9598;50.954;3.112;2023-04-03T19:14:01;3.47;;;3.17;;
18931;SDS011;9598;50.954;3.112;2023-04-03T19:19:05;4.00;;;2.75;;
18931;SDS011;9598;50.954;3.112;2023-04-03T19:24:11;3.05;;;2.80;;
18931;SDS011;9598;50.954;3.112;2023-04-03T19:29:14;4.03;;;2.70;;
18931;SDS011;9598;50.954;3.112;2023-04-03T19:34:17;5.28;;;3.63;;
18931;SDS011;9598;50.954;3.112;2023-04-03T19:39:20;3.67;;;3.38;;
18931;SDS011;9598;50.954;3.112;2023-04-03T19:44:23;4.57;;;3.30;;
18931;SDS011;9598;50.954;3.112;2023-04-03T19:49:25;4.80;;;4.15;;
18931;SDS011;9598;50.954;3.112;2023-04-03T19:54:29;5.10;;;3.35;;
18931;SDS011;9598;50.954;3.112;2023-04-03T19:59:31;4.20;;;3.67;;
18931;SDS011;9598;50.954;3.112;2023-04-03T20:04:33;4.32;;;3.65;;
18931;SDS011;9598;50.954;3.112;2023-04-03T20:09:37;4.70;;;3.63;;
18931;SDS011;9598;50.954;3.112;2023-04-03T20:14:39;5.93;;;3.42;;
18931;SDS011;9598;50.954;3.112;2023-04-03T20:19:42;6.28;;;4.20;;
18931;SDS011;9598;50.954;3.112;2023-04-03T20:24:46;5.55;;;3.70;;
18931;SDS011;9598;50.954;3.112;2023-04-03T20:29:48;6.00;;;3.88;;
18931;SDS011;9598;50.954;3.112;2023-04-03T20:34:50;5.88;;;4.38;;
18931;SDS011;9598;50.954;3.112;2023-04-03T20:39:54;4.65;;;4.07;;
18931;SDS011;9598;50.954;3.112;2023-04-03T20:44:56;9.40;;;4.50;;
18931;SDS011;9598;50.954;3.112;2023-04-03T20:49:58;8.65;;;4.32;;
18931;SDS011;9598;50.954;3.112;2023-04-03T20:55:02;8.95;;;5.38;;
18931;SDS011;9598;50.954;3.112;2023-04-03T21:00:06;7.25;;;4.95;;
18931;SDS011;9598;50.954;3.112;2023-04-03T21:05:09;5.97;;;4.57;;
18931;SDS011;9598;50.954;3.112;2023-04-03T21:20:55;8.65;;;4.40;;
18931;SDS011;9598;50.954;3.112;2023-04-03T21:25:58;5.85;;;4.15;;
18931;SDS011;9598;50.954;3.112;2023-04-03T21:31:01;5.10;;;3.95;;
18931;SDS011;9598;50.954;3.112;2023-04-03T21:36:04;6.50;;;3.95;;
18931;SDS011;9598;50.954;3.112;2023-04-03T21:41:08;5.38;;;3.67;;
18931;SDS011;9598;50.954;3.112;2023-04-03T21:46:10;4.03;;;3.55;;
18931;SDS011;9598;50.954;3.112;2023-04-03T21:51:14;4.65;;;3.58;;
18931;SDS011;9598;50.954;3.112;2023-04-03T21:56:17;5.75;;;3.85;;
18931;SDS011;9598;50.954;3.112;2023-04-03T22:01:19;5.22;;;3.42;;
18931;SDS011;9598;50.954;3.112;2023-04-03T22:06:23;4.55;;;3.85;;
18931;SDS011;9598;50.954;3.112;2023-04-03T22:11:26;3.75;;;3.35;;
18931;SDS011;9598;50.954;3.112;2023-04-03T22:16:28;6.88;;;3.50;;
18931;SDS011;9598;50.954;3.112;2023-04-03T22:21:32;6.32;;;3.60;;
18931;SDS011;9598;50.954;3.112;2023-04-03T22:26:34;4.18;;;3.15;;
18931;SDS011;9598;50.954;3.112;2023-04-03T22:31:37;5.40;;;3.58;;
18931;SDS011;9598;50.954;3.112;2023-04-03T22:36:42;6.05;;;3.40;;
18931;SDS011;9598;50.954;3.112;2023-04-03T22:41:44;6.65;;;3.40;;
18931;SDS011;9598;50.954;3.112;2023-04-03T22:46:46;4.18;;;3.55;;
18931;SDS011;9598;50.954;3.112;2023-04-03T22:51:49;5.45;;;3.45;;
18931;SDS011;9598;50.954;3.112;2023-04-03T22:56:51;5.10;;;3.00;;
18931;SDS011;9598;50.954;3.112;2023-04-03T23:01:53;3.65;;;2.63;;
18931;SDS011;9598;50.954;3.112;2023-04-03T23:06:57;4.43;;;3.15;;
18931;SDS011;9598;50.954;3.112;2023-04-03T23:11:59;3.50;;;2.90;;
18931;SDS011;9598;50.954;3.112;2023-04-03T23:17:02;5.80;;;3.25;;
18931;SDS011;9598;50.954;3.112;2023-04-03T23:22:06;3.65;;;2.75;;
18931;SDS011;9598;50.954;3.112;2023-04-03T23:27:10;4.63;;;2.78;;
18931;SDS011;9598;50.954;3.112;2023-04-03T23:32:13;4.88;;;2.72;;
18931;SDS011;9598;50.954;3.112;2023-04-03T23:37:16;6.10;;;3.20;;
18931;SDS011;9598;50.954;3.112;2023-04-03T23:42:18;6.35;;;2.85;;
18931;SDS011;9598;50.954;3.112;2023-04-03T23:47:20;5.78;;;3.63;;
18931;SDS011;9598;50.954;3.112;2023-04-03T23:52:24;4.88;;;3.47;;
18931;SDS011;9598;50.954;3.112;2023-04-03T23:57:26;5.18;;;3.13;;
